This is the latest recevied weather packets stored in our database for station/object IU2PLZ-10. If no packets are shown the sender has not sent any weather packets the latest 10 day(s).
| Time | Temp. | Humidity | Pressure | Rain* | Wind** | Luminosity | Snow |
|---|---|---|---|---|---|---|---|
| 1777778224 | 14.44° C | 59% | 970.5 hPa | - | - | - | - |
| 1777777324 | 14.44° C | 58% | 970.4 hPa | - | - | - | - |
| 1777776424 | 14.44° C | 59% | 970.3 hPa | - | - | - | - |
| 1777775524 | 14.44° C | 57% | 970.5 hPa | - | - | - | - |
| 1777774623 | 14.44° C | 58% | 970.4 hPa | - | - | - | - |
| 1777773723 | 13.89° C | 56% | 969.8 hPa | - | - | - | - |
| 1777772823 | 14.44° C | 56% | 970.5 hPa | - | - | - | - |
| 1777771923 | 13.89° C | 56% | 969.6 hPa | - | - | - | - |
| 1777771023 | 13.89° C | 54% | 969.6 hPa | - | - | - | - |
| 1777770123 | 15° C | 53% | 970.6 hPa | - | - | - | - |
| 1777769223 | 15° C | 53% | 970.7 hPa | - | - | - | - |
| 1777768322 | 14.44° C | 52% | 970.1 hPa | - | - | - | - |
| 1777767422 | 15° C | 51% | 970.9 hPa | - | - | - | - |
| 1777766522 | 14.44° C | 51% | 971.1 hPa | - | - | - | - |
| 1777765622 | 13.89° C | 51% | 970.5 hPa | - | - | - | - |
| 1777763822 | 14.44° C | 51% | 971.4 hPa | - | - | - | - |
| 1777762921 | 14.44° C | 51% | 971.5 hPa | - | - | - | - |
| 1777762021 | 13.89° C | 51% | 970.7 hPa | - | - | - | - |
| 1777761121 | 14.44° C | 51% | 970.5 hPa | - | - | - | - |
| 1777760221 | 15° C | 51% | 971.6 hPa | - | - | - | - |
| 1777759321 | 15° C | 52% | 971.5 hPa | - | - | - | - |
| 1777758421 | 14.44° C | 53% | 971.6 hPa | - | - | - | - |
| 1777757520 | 13.89° C | 54% | 970.7 hPa | - | - | - | - |
| 1777756620 | 14.44° C | 55% | 971.4 hPa | - | - | - | - |
| 1777755720 | 14.44° C | 55% | 971.3 hPa | - | - | - | - |
* Rain since midnight (hover to see other rain measurements)
** Current wind speed in m/s (hover to see current wind gust speed)